Time;durP1;ratioP1;P1;durP2;ratioP2;P2;SDS_P1;SDS_P2;PMS_P1;PMS_P2;Temp;Humidity;BMP_temperature;BMP_pressure;BME280_temperature;BME280_humidity;BME280_pressure;Samples;Min_cycle;Max_cycle;Signal;HPM_P1;HPM_P2
2023/03/12 00:01:00;;;;;;;;;9.75;7.00;;;;;;;;120106;1187;25597;-59
2023/03/12 00:03:34;;;;;;;;;9.00;7.25;;;;;;;;120109;1190;25207;-59
2023/03/12 00:06:03;;;;;;;;;8.00;7.50;;;;;;;;120108;1190;24697;-59
2023/03/12 00:08:38;;;;;;;;;10.00;7.67;;;;;;;;120105;1190;25519;-59
2023/03/12 00:11:08;;;;;;;;;10.75;9.25;;;;;;;;119929;1190;24718;-60
2023/03/12 00:13:37;;;;;;;;;12.50;7.50;;;;;;;;120107;1190;24893;-59
2023/03/12 00:16:13;;;;;;;;;13.00;9.00;;;;;;;;119922;1190;25569;-59
2023/03/12 00:18:42;;;;;;;;;10.75;8.00;;;;;;;;119972;1189;24843;-59
2023/03/12 00:21:10;;;;;;;;;10.00;7.00;;;;;;;;119733;1190;24869;-60
2023/03/12 00:23:39;;;;;;;;;9.00;8.00;;;;;;;;119945;1190;25249;-60
2023/03/12 00:26:10;;;;;;;;;8.00;7.00;;;;;;;;119737;1190;25575;-59
2023/03/12 00:28:38;;;;;;;;;11.25;8.00;;;;;;;;119967;1182;25462;-59
2023/03/12 00:31:33;;;;;;;;;13.00;8.00;;;;;;;;119865;1187;25652;-59
2023/03/12 00:34:01;;;;;;;;;6.75;6.00;;;;;;;;119887;1182;25284;-59
2023/03/12 00:36:31;;;;;;;;;11.00;8.00;;;;;;;;119939;1190;24928;-60
2023/03/12 00:39:00;;;;;;;;;6.67;5.33;;;;;;;;120113;1190;25434;-60
2023/03/12 00:41:29;;;;;;;;;9.75;7.75;;;;;;;;120125;1190;25258;-60
2023/03/12 00:43:57;;;;;;;;;9.67;8.33;;;;;;;;119945;1190;25119;-59
2023/03/12 00:46:26;;;;;;;;;9.50;7.25;;;;;;;;119933;1190;24850;-59
2023/03/12 00:48:54;;;;;;;;;6.00;5.25;;;;;;;;120118;1182;25264;-59
2023/03/12 00:51:22;;;;;;;;;9.00;7.50;;;;;;;;119954;1182;24833;-58
2023/03/12 00:53:50;;;;;;;;;8.50;7.25;;;;;;;;119949;1187;25180;-58
2023/03/12 00:56:19;;;;;;;;;12.33;8.67;;;;;;;;120105;1190;24688;-59
2023/03/12 00:58:47;;;;;;;;;10.75;7.75;;;;;;;;120114;1190;25271;-59
2023/03/12 01:01:15;;;;;;;;;9.50;8.25;;;;;;;;120117;1190;25547;-59
2023/03/12 01:03:44;;;;;;;;;13.33;7.00;;;;;;;;119943;1190;25445;-59
2023/03/12 01:06:13;;;;;;;;;5.75;5.75;;;;;;;;119942;1190;24762;-59
2023/03/12 01:08:41;;;;;;;;;11.67;7.00;;;;;;;;120097;1190;25364;-59
2023/03/12 01:11:16;;;;;;;;;8.00;8.00;;;;;;;;120126;1190;24863;-59
2023/03/12 01:13:45;;;;;;;;;5.00;3.00;;;;;;;;119917;1190;25495;-60
2023/03/12 01:16:13;;;;;;;;;7.25;6.75;;;;;;;;119950;1190;25630;-59
2023/03/12 01:18:42;;;;;;;;;8.00;7.50;;;;;;;;119947;1190;25417;-60
2023/03/12 01:21:10;;;;;;;;;7.00;7.00;;;;;;;;120105;1181;25039;-59
2023/03/12 01:23:38;;;;;;;;;9.00;6.00;;;;;;;;120124;1182;25613;-59
2023/03/12 01:26:06;;;;;;;;;7.67;6.33;;;;;;;;120076;1189;25030;-60
2023/03/12 01:28:34;;;;;;;;;7.00;5.67;;;;;;;;119915;1190;25514;-60
2023/03/12 01:31:11;;;;;;;;;9.50;6.00;;;;;;;;119922;1190;24864;-60
2023/03/12 01:33:40;;;;;;;;;8.00;6.50;;;;;;;;119899;1190;25128;-60
2023/03/12 01:36:33;;;;;;;;;7.50;6.50;;;;;;;;119914;1183;25419;-59
2023/03/12 01:39:01;;;;;;;;;9.00;5.25;;;;;;;;119919;1190;25657;-60
2023/03/12 01:41:34;;;;;;;;;6.67;4.67;;;;;;;;119932;1190;25672;-60
2023/03/12 01:44:03;;;;;;;;;9.25;8.50;;;;;;;;119925;1190;24713;-60
2023/03/12 01:46:35;;;;;;;;;5.33;4.33;;;;;;;;119941;1190;25396;-60
2023/03/12 01:49:10;;;;;;;;;6.00;5.00;;;;;;;;120121;1182;25196;-60
2023/03/12 01:51:55;;;;;;;;;7.33;6.00;;;;;;;;119967;1190;24912;-60
2023/03/12 01:54:52;;;;;;;;;7.50;6.50;;;;;;;;120129;1181;25626;-60
2023/03/12 01:57:31;;;;;;;;;8.00;6.33;;;;;;;;120159;1190;25067;-60
2023/03/12 02:00:03;;;;;;;;;6.75;6.75;;;;;;;;120119;1189;25328;-60
2023/03/12 02:02:32;;;;;;;;;6.33;5.00;;;;;;;;120106;1190;25008;-59
2023/03/12 02:05:11;;;;;;;;;8.00;7.00;;;;;;;;119957;1179;25468;-59
2023/03/12 02:07:39;;;;;;;;;8.25;4.50;;;;;;;;119912;1190;24787;-60
2023/03/12 02:10:08;;;;;;;;;6.00;4.50;;;;;;;;120105;1190;25406;-60
2023/03/12 02:12:36;;;;;;;;;8.00;5.00;;;;;;;;120103;1190;25288;-60
2023/03/12 02:15:04;;;;;;;;;7.00;6.00;;;;;;;;120082;1185;25257;-60
2023/03/12 02:17:35;;;;;;;;;2.00;2.00;;;;;;;;119897;1190;25607;-59
2023/03/12 02:20:15;;;;;;;;;6.33;4.33;;;;;;;;119896;1190;25711;-59
2023/03/12 02:22:50;;;;;;;;;4.75;3.75;;;;;;;;119922;1190;25281;-59
2023/03/12 02:25:49;;;;;;;;;8.00;5.00;;;;;;;;119893;1190;25507;-59
2023/03/12 02:28:19;;;;;;;;;7.50;6.50;;;;;;;;119885;1190;25162;-59
2023/03/12 02:30:50;;;;;;;;;3.75;2.50;;;;;;;;119892;1190;25186;-59
2023/03/12 02:33:18;;;;;;;;;8.50;5.50;;;;;;;;119925;1190;25189;-59
2023/03/12 02:35:47;;;;;;;;;4.33;4.33;;;;;;;;119967;1189;25091;-59
2023/03/12 02:38:37;;;;;;;;;3.75;3.75;;;;;;;;119965;1182;25615;-59
2023/03/12 02:41:16;;;;;;;;;6.25;5.50;;;;;;;;120121;1182;25006;-59
2023/03/12 02:43:48;;;;;;;;;5.75;5.75;;;;;;;;120109;1190;25241;-59
2023/03/12 02:46:16;;;;;;;;;5.50;5.00;;;;;;;;119963;1182;24900;-59
2023/03/12 02:48:45;;;;;;;;;7.00;6.00;;;;;;;;119945;1190;25510;-59
2023/03/12 02:51:13;;;;;;;;;3.33;3.00;;;;;;;;120112;1182;24810;-59
2023/03/12 02:53:41;;;;;;;;;5.25;4.75;;;;;;;;119986;1182;25417;-59
2023/03/12 02:56:10;;;;;;;;;9.50;5.00;;;;;;;;120104;1190;25424;-59
2023/03/12 02:58:38;;;;;;;;;9.00;6.00;;;;;;;;120103;1190;25335;-59
2023/03/12 03:01:06;;;;;;;;;5.00;4.75;;;;;;;;120120;1189;24917;-59
2023/03/12 03:03:34;;;;;;;;;5.00;5.00;;;;;;;;120108;1189;25478;-59
2023/03/12 03:06:02;;;;;;;;;7.00;4.33;;;;;;;;119989;1187;25591;-59
2023/03/12 03:08:31;;;;;;;;;5.67;5.00;;;;;;;;119930;1190;24715;-59
2023/03/12 03:11:01;;;;;;;;;5.00;4.00;;;;;;;;119901;1190;25063;-59
2023/03/12 03:13:30;;;;;;;;;5.75;5.00;;;;;;;;119922;1190;25262;-59
2023/03/12 03:16:00;;;;;;;;;5.50;3.50;;;;;;;;119716;1184;25459;-59
2023/03/12 03:18:29;;;;;;;;;6.00;4.75;;;;;;;;119906;1190;24752;-59
2023/03/12 03:21:01;;;;;;;;;5.25;5.25;;;;;;;;119942;1182;24927;-59
2023/03/12 03:23:29;;;;;;;;;4.00;4.00;;;;;;;;120117;1190;25477;-59
2023/03/12 03:25:58;;;;;;;;;9.00;4.33;;;;;;;;119941;1190;25366;-59
2023/03/12 03:28:27;;;;;;;;;4.75;4.00;;;;;;;;119963;1182;24870;-59
2023/03/12 03:31:00;;;;;;;;;6.00;5.50;;;;;;;;119928;1190;25433;-59
2023/03/12 03:33:29;;;;;;;;;5.75;4.00;;;;;;;;119955;1190;25510;-60
2023/03/12 03:35:58;;;;;;;;;4.67;3.67;;;;;;;;119919;1190;25691;-59
2023/03/12 03:38:28;;;;;;;;;4.50;4.00;;;;;;;;119956;1190;24849;-59
2023/03/12 03:40:57;;;;;;;;;3.75;3.75;;;;;;;;120100;1190;25264;-59
2023/03/12 03:43:26;;;;;;;;;5.00;5.00;;;;;;;;119959;1182;24866;-59
2023/03/12 03:46:02;;;;;;;;;3.50;3.00;;;;;;;;120120;1190;25080;-59
2023/03/12 03:48:30;;;;;;;;;6.25;5.50;;;;;;;;119939;1190;24792;-59
2023/03/12 03:51:00;;;;;;;;;5.25;3.50;;;;;;;;120115;1190;24893;-59
2023/03/12 03:53:29;;;;;;;;;6.25;5.25;;;;;;;;119965;1182;25043;-59
2023/03/12 03:55:57;;;;;;;;;5.00;4.25;;;;;;;;119930;1190;25472;-59
2023/03/12 03:58:26;;;;;;;;;6.00;4.50;;;;;;;;120114;1190;26470;-59
2023/03/12 04:00:54;;;;;;;;;1.00;1.00;;;;;;;;120120;1190;25158;-59
2023/03/12 04:03:22;;;;;;;;;7.00;5.50;;;;;;;;120093;1190;25680;-59
2023/03/12 04:05:55;;;;;;;;;5.00;5.00;;;;;;;;120111;1182;25129;-59
2023/03/12 04:08:24;;;;;;;;;4.00;3.00;;;;;;;;119929;1190;25314;-59
2023/03/12 04:10:52;;;;;;;;;3.00;3.00;;;;;;;;119891;1190;24917;-59
2023/03/12 04:13:21;;;;;;;;;5.67;4.00;;;;;;;;119902;1190;25022;-59
2023/03/12 04:15:53;;;;;;;;;3.00;1.50;;;;;;;;119737;1190;25700;-59
2023/03/12 04:18:21;;;;;;;;;4.33;4.33;;;;;;;;119760;1184;25691;-59
2023/03/12 04:20:50;;;;;;;;;3.33;3.33;;;;;;;;119916;1190;24805;-59
2023/03/12 04:23:18;;;;;;;;;6.00;4.00;;;;;;;;119724;1190;25359;-59
2023/03/12 04:25:46;;;;;;;;;3.33;2.67;;;;;;;;119935;1190;24881;-59
2023/03/12 04:28:14;;;;;;;;;5.00;5.00;;;;;;;;120115;1190;24813;-59
2023/03/12 04:30:42;;;;;;;;;5.25;2.75;;;;;;;;119948;1182;25086;-59
2023/03/12 04:33:11;;;;;;;;;6.25;4.50;;;;;;;;119948;1182;25499;-59
2023/03/12 04:35:39;;;;;;;;;6.33;3.33;;;;;;;;119936;1190;25649;-59
2023/03/12 04:38:07;;;;;;;;;2.50;2.50;;;;;;;;120107;1190;26158;-59
2023/03/12 04:40:35;;;;;;;;;5.50;3.00;;;;;;;;120105;1190;24748;-59
2023/03/12 04:43:04;;;;;;;;;3.75;3.75;;;;;;;;120013;1182;25371;-59
2023/03/12 04:45:33;;;;;;;;;2.50;2.50;;;;;;;;119892;1187;25339;-59
2023/03/12 04:48:01;;;;;;;;;4.00;3.50;;;;;;;;119926;1190;25257;-60
2023/03/12 04:50:29;;;;;;;;;3.25;3.25;;;;;;;;119916;1190;25524;-60
2023/03/12 04:52:57;;;;;;;;;3.75;3.75;;;;;;;;119901;1190;25384;-60
2023/03/12 04:55:25;;;;;;;;;3.33;3.33;;;;;;;;119922;1182;24931;-59
2023/03/12 04:57:54;;;;;;;;;1.00;1.00;;;;;;;;119939;1182;25439;-60
2023/03/12 05:00:22;;;;;;;;;4.00;3.67;;;;;;;;119914;1189;25591;-60
2023/03/12 05:02:50;;;;;;;;;3.75;2.75;;;;;;;;119901;1190;25574;-60
2023/03/12 05:05:19;;;;;;;;;4.33;3.00;;;;;;;;119952;1181;24824;-60
2023/03/12 05:07:47;;;;;;;;;4.50;3.50;;;;;;;;119893;1190;25591;-60
2023/03/12 05:10:15;;;;;;;;;4.33;3.67;;;;;;;;119931;1190;25048;-60
2023/03/12 05:12:43;;;;;;;;;3.25;3.25;;;;;;;;119920;1190;25622;-59
2023/03/12 05:15:12;;;;;;;;;3.67;2.67;;;;;;;;119957;1190;24877;-59
2023/03/12 05:17:40;;;;;;;;;3.25;3.25;;;;;;;;119926;1189;25573;-60
2023/03/12 05:20:09;;;;;;;;;4.50;4.00;;;;;;;;120097;1189;25683;-59
2023/03/12 05:22:38;;;;;;;;;2.75;2.75;;;;;;;;119930;1190;25477;-60
2023/03/12 05:25:07;;;;;;;;;3.00;3.00;;;;;;;;119937;1190;25005;-59
2023/03/12 05:27:35;;;;;;;;;3.50;3.00;;;;;;;;120103;1186;25565;-59
2023/03/12 05:30:04;;;;;;;;;3.00;3.00;;;;;;;;119955;1182;25404;-60
2023/03/12 05:32:33;;;;;;;;;6.25;4.75;;;;;;;;119887;1190;25785;-60
2023/03/12 05:35:01;;;;;;;;;1.75;1.75;;;;;;;;119903;1190;25347;-59
2023/03/12 05:37:29;;;;;;;;;2.00;1.33;;;;;;;;119946;1190;24953;-60
2023/03/12 05:39:58;;;;;;;;;2.50;2.50;;;;;;;;119910;1182;25274;-60
2023/03/12 05:42:26;;;;;;;;;2.00;2.00;;;;;;;;119901;1190;25140;-59
2023/03/12 05:44:54;;;;;;;;;3.00;3.00;;;;;;;;119917;1190;25106;-60
2023/03/12 05:47:22;;;;;;;;;3.00;2.25;;;;;;;;119929;1190;24796;-60
2023/03/12 05:49:51;;;;;;;;;4.00;4.00;;;;;;;;119932;1190;25116;-59
2023/03/12 05:52:19;;;;;;;;;3.67;3.00;;;;;;;;119933;1190;25540;-60
2023/03/12 05:54:47;;;;;;;;;3.00;3.00;;;;;;;;119927;1190;25724;-58
2023/03/12 05:57:15;;;;;;;;;3.00;3.00;;;;;;;;119924;1181;25401;-59
2023/03/12 05:59:44;;;;;;;;;2.00;1.00;;;;;;;;119925;1190;25771;-59
2023/03/12 06:02:12;;;;;;;;;2.75;2.75;;;;;;;;119939;1190;25015;-59
2023/03/12 06:04:40;;;;;;;;;4.50;4.00;;;;;;;;119927;1190;24779;-59
2023/03/12 06:07:08;;;;;;;;;3.75;3.75;;;;;;;;119933;1190;25368;-59
2023/03/12 06:09:36;;;;;;;;;4.00;3.00;;;;;;;;119935;1190;25416;-59
2023/03/12 06:12:05;;;;;;;;;4.00;2.00;;;;;;;;119942;1182;25698;-60
2023/03/12 06:14:33;;;;;;;;;4.50;3.75;;;;;;;;119914;1190;25516;-60
2023/03/12 06:17:01;;;;;;;;;2.00;2.00;;;;;;;;119925;1190;25581;-59
2023/03/12 06:19:29;;;;;;;;;2.67;2.67;;;;;;;;119869;1190;25328;-59
2023/03/12 06:21:58;;;;;;;;;4.00;2.67;;;;;;;;119932;1182;25272;-60
2023/03/12 06:24:26;;;;;;;;;3.00;3.00;;;;;;;;119904;1182;25345;-59
2023/03/12 06:26:54;;;;;;;;;3.75;3.00;;;;;;;;119919;1190;25144;-60
2023/03/12 06:29:22;;;;;;;;;3.25;2.75;;;;;;;;119945;1190;25322;-59
2023/03/12 06:31:51;;;;;;;;;2.67;2.67;;;;;;;;119932;1186;25521;-59
2023/03/12 06:34:19;;;;;;;;;4.25;2.00;;;;;;;;119949;1190;24844;-59
2023/03/12 06:36:47;;;;;;;;;3.00;2.50;;;;;;;;119910;1190;25040;-59
2023/03/12 06:39:15;;;;;;;;;2.75;2.75;;;;;;;;120031;1189;24706;-59
2023/03/12 06:41:45;;;;;;;;;2.00;2.00;;;;;;;;120104;1189;25125;-60
2023/03/12 06:44:13;;;;;;;;;2.75;2.00;;;;;;;;120115;1189;25629;-58
2023/03/12 06:46:43;;;;;;;;;2.00;2.00;;;;;;;;120116;1189;25226;-58
2023/03/12 06:49:11;;;;;;;;;2.00;2.00;;;;;;;;120102;1190;24887;-59
2023/03/12 06:51:40;;;;;;;;;2.50;2.50;;;;;;;;119941;1190;24960;-58
2023/03/12 06:54:08;;;;;;;;;1.00;1.00;;;;;;;;120103;1186;25290;-58
2023/03/12 06:56:37;;;;;;;;;3.00;2.00;;;;;;;;120099;1190;25356;-58
2023/03/12 06:59:05;;;;;;;;;5.00;3.00;;;;;;;;120099;1190;25145;-59
2023/03/12 07:01:33;;;;;;;;;3.00;2.00;;;;;;;;119955;1190;25185;-59
2023/03/12 07:04:02;;;;;;;;;3.75;2.00;;;;;;;;120117;1181;25162;-59
2023/03/12 07:06:30;;;;;;;;;4.00;3.00;;;;;;;;120112;1182;25062;-58
2023/03/12 07:08:58;;;;;;;;;2.00;2.00;;;;;;;;120117;1190;24902;-59
2023/03/12 07:11:26;;;;;;;;;5.00;3.00;;;;;;;;120090;1189;25545;-59
2023/03/12 07:13:54;;;;;;;;;3.00;3.00;;;;;;;;119918;1190;24771;-59
2023/03/12 07:16:22;;;;;;;;;3.50;2.75;;;;;;;;119913;1190;25036;-58
2023/03/12 07:18:51;;;;;;;;;3.00;3.00;;;;;;;;119980;1182;25247;-58
2023/03/12 07:21:22;;;;;;;;;4.75;4.50;;;;;;;;120117;1182;24840;-59
2023/03/12 07:23:51;;;;;;;;;6.00;3.00;;;;;;;;120113;1190;24957;-57
2023/03/12 07:26:20;;;;;;;;;5.25;4.00;;;;;;;;119946;1190;25317;-59
2023/03/12 07:28:48;;;;;;;;;4.33;3.67;;;;;;;;120022;1182;25515;-59
2023/03/12 07:31:16;;;;;;;;;5.33;3.00;;;;;;;;119913;1190;25539;-59
2023/03/12 07:33:45;;;;;;;;;5.50;3.75;;;;;;;;119910;1182;24714;-59
2023/03/12 07:36:13;;;;;;;;;6.50;3.00;;;;;;;;119915;1190;25618;-60
2023/03/12 07:38:41;;;;;;;;;2.00;2.00;;;;;;;;119882;1190;24799;-59
2023/03/12 07:41:10;;;;;;;;;3.00;3.00;;;;;;;;119903;1190;24781;-59
2023/03/12 07:43:38;;;;;;;;;6.00;4.00;;;;;;;;119887;1190;24895;-60
